sensor_id;sensor_type;location;lat;lon;timestamp;P1;durP1;ratioP1;P2;durP2;ratioP2
17763;SDS011;22245;52.832;13.816;2023-07-20T00:00:13;4.82;;;3.60;;
17763;SDS011;22245;52.832;13.816;2023-07-20T00:03:35;5.22;;;3.28;;
17763;SDS011;22245;52.832;13.816;2023-07-20T00:06:57;3.47;;;2.95;;
17763;SDS011;22245;52.832;13.816;2023-07-20T00:10:20;4.10;;;3.42;;
17763;SDS011;22245;52.832;13.816;2023-07-20T00:13:44;5.15;;;3.38;;
17763;SDS011;22245;52.832;13.816;2023-07-20T00:17:06;3.30;;;3.00;;
17763;SDS011;22245;52.832;13.816;2023-07-20T00:20:27;4.00;;;3.13;;
17763;SDS011;22245;52.832;13.816;2023-07-20T00:23:49;6.03;;;3.38;;
17763;SDS011;22245;52.832;13.816;2023-07-20T00:27:11;5.43;;;3.72;;
17763;SDS011;22245;52.832;13.816;2023-07-20T00:30:34;5.85;;;3.70;;
17763;SDS011;22245;52.832;13.816;2023-07-20T00:33:56;5.05;;;3.55;;
17763;SDS011;22245;52.832;13.816;2023-07-20T00:37:17;4.65;;;3.55;;
17763;SDS011;22245;52.832;13.816;2023-07-20T00:40:39;4.88;;;3.28;;
17763;SDS011;22245;52.832;13.816;2023-07-20T00:44:01;4.28;;;3.35;;
17763;SDS011;22245;52.832;13.816;2023-07-20T00:47:24;4.88;;;3.03;;
17763;SDS011;22245;52.832;13.816;2023-07-20T00:50:47;6.47;;;3.88;;
17763;SDS011;22245;52.832;13.816;2023-07-20T00:54:09;4.78;;;3.10;;
17763;SDS011;22245;52.832;13.816;2023-07-20T00:57:31;4.70;;;3.40;;
17763;SDS011;22245;52.832;13.816;2023-07-20T01:00:54;4.22;;;3.35;;
17763;SDS011;22245;52.832;13.816;2023-07-20T01:04:17;5.38;;;3.80;;
17763;SDS011;22245;52.832;13.816;2023-07-20T01:07:41;4.50;;;3.50;;
17763;SDS011;22245;52.832;13.816;2023-07-20T01:11:10;3.75;;;3.13;;
17763;SDS011;22245;52.832;13.816;2023-07-20T01:14:36;4.63;;;3.97;;
17763;SDS011;22245;52.832;13.816;2023-07-20T01:17:58;4.15;;;3.47;;
17763;SDS011;22245;52.832;13.816;2023-07-20T01:21:24;5.03;;;4.10;;
17763;SDS011;22245;52.832;13.816;2023-07-20T01:24:57;7.40;;;3.80;;
17763;SDS011;22245;52.832;13.816;2023-07-20T01:28:35;5.72;;;3.75;;
17763;SDS011;22245;52.832;13.816;2023-07-20T01:32:07;3.95;;;3.38;;
17763;SDS011;22245;52.832;13.816;2023-07-20T01:35:31;4.55;;;3.60;;
17763;SDS011;22245;52.832;13.816;2023-07-20T01:38:55;4.28;;;3.72;;
17763;SDS011;22245;52.832;13.816;2023-07-20T01:42:17;5.65;;;3.72;;
17763;SDS011;22245;52.832;13.816;2023-07-20T01:45:39;7.07;;;4.18;;
17763;SDS011;22245;52.832;13.816;2023-07-20T01:49:02;7.05;;;4.35;;
17763;SDS011;22245;52.832;13.816;2023-07-20T01:52:24;6.60;;;4.10;;
17763;SDS011;22245;52.832;13.816;2023-07-20T01:55:46;5.18;;;3.80;;
17763;SDS011;22245;52.832;13.816;2023-07-20T01:59:08;4.70;;;3.83;;
17763;SDS011;22245;52.832;13.816;2023-07-20T02:02:29;5.03;;;3.80;;
17763;SDS011;22245;52.832;13.816;2023-07-20T02:05:53;4.68;;;3.90;;
17763;SDS011;22245;52.832;13.816;2023-07-20T02:09:14;8.02;;;4.45;;
17763;SDS011;22245;52.832;13.816;2023-07-20T02:12:36;5.25;;;4.43;;
17763;SDS011;22245;52.832;13.816;2023-07-20T02:15:57;5.60;;;4.40;;
17763;SDS011;22245;52.832;13.816;2023-07-20T02:19:20;5.20;;;4.30;;
17763;SDS011;22245;52.832;13.816;2023-07-20T02:22:44;9.32;;;5.35;;
17763;SDS011;22245;52.832;13.816;2023-07-20T02:26:06;10.55;;;6.32;;
17763;SDS011;22245;52.832;13.816;2023-07-20T02:29:28;9.82;;;6.85;;
17763;SDS011;22245;52.832;13.816;2023-07-20T02:32:50;11.55;;;7.07;;
17763;SDS011;22245;52.832;13.816;2023-07-20T02:36:12;11.25;;;7.25;;
17763;SDS011;22245;52.832;13.816;2023-07-20T02:39:35;9.38;;;6.97;;
17763;SDS011;22245;52.832;13.816;2023-07-20T02:42:57;10.50;;;7.28;;
17763;SDS011;22245;52.832;13.816;2023-07-20T02:46:18;9.57;;;6.80;;
17763;SDS011;22245;52.832;13.816;2023-07-20T02:49:41;11.50;;;7.45;;
17763;SDS011;22245;52.832;13.816;2023-07-20T02:53:02;12.02;;;7.15;;
17763;SDS011;22245;52.832;13.816;2023-07-20T02:56:25;12.55;;;7.68;;
17763;SDS011;22245;52.832;13.816;2023-07-20T02:59:47;10.98;;;7.38;;
17763;SDS011;22245;52.832;13.816;2023-07-20T03:03:09;13.52;;;8.15;;
17763;SDS011;22245;52.832;13.816;2023-07-20T03:06:31;11.68;;;7.78;;
17763;SDS011;22245;52.832;13.816;2023-07-20T03:09:56;13.27;;;8.20;;
17763;SDS011;22245;52.832;13.816;2023-07-20T03:13:19;11.45;;;8.18;;
17763;SDS011;22245;52.832;13.816;2023-07-20T03:16:40;11.98;;;7.65;;
17763;SDS011;22245;52.832;13.816;2023-07-20T03:20:02;13.45;;;8.60;;
17763;SDS011;22245;52.832;13.816;2023-07-20T03:23:25;10.52;;;7.90;;
17763;SDS011;22245;52.832;13.816;2023-07-20T03:26:48;10.43;;;8.38;;
17763;SDS011;22245;52.832;13.816;2023-07-20T03:30:11;10.82;;;8.10;;
17763;SDS011;22245;52.832;13.816;2023-07-20T03:33:33;12.75;;;8.75;;
17763;SDS011;22245;52.832;13.816;2023-07-20T03:36:55;11.93;;;8.48;;
17763;SDS011;22245;52.832;13.816;2023-07-20T03:40:17;12.95;;;9.48;;
17763;SDS011;22245;52.832;13.816;2023-07-20T03:43:39;12.18;;;8.55;;
17763;SDS011;22245;52.832;13.816;2023-07-20T03:47:02;11.63;;;8.13;;
17763;SDS011;22245;52.832;13.816;2023-07-20T03:50:25;14.13;;;8.85;;
17763;SDS011;22245;52.832;13.816;2023-07-20T03:53:46;12.63;;;9.65;;
17763;SDS011;22245;52.832;13.816;2023-07-20T03:57:08;12.27;;;9.20;;
17763;SDS011;22245;52.832;13.816;2023-07-20T04:00:30;13.10;;;9.95;;
17763;SDS011;22245;52.832;13.816;2023-07-20T04:03:53;12.50;;;9.00;;
17763;SDS011;22245;52.832;13.816;2023-07-20T04:07:15;10.18;;;8.10;;
17763;SDS011;22245;52.832;13.816;2023-07-20T04:10:36;10.60;;;8.43;;
17763;SDS011;22245;52.832;13.816;2023-07-20T04:13:58;10.88;;;8.70;;
17763;SDS011;22245;52.832;13.816;2023-07-20T04:17:20;11.05;;;7.47;;
17763;SDS011;22245;52.832;13.816;2023-07-20T04:20:43;9.40;;;7.32;;
17763;SDS011;22245;52.832;13.816;2023-07-20T04:24:05;9.23;;;7.20;;
17763;SDS011;22245;52.832;13.816;2023-07-20T04:27:27;8.32;;;6.63;;
17763;SDS011;22245;52.832;13.816;2023-07-20T04:30:49;8.85;;;6.28;;
17763;SDS011;22245;52.832;13.816;2023-07-20T04:34:12;8.32;;;5.82;;
17763;SDS011;22245;52.832;13.816;2023-07-20T04:37:35;7.45;;;5.68;;
17763;SDS011;22245;52.832;13.816;2023-07-20T04:40:57;8.25;;;6.03;;
17763;SDS011;22245;52.832;13.816;2023-07-20T04:44:19;7.32;;;5.85;;
17763;SDS011;22245;52.832;13.816;2023-07-20T04:47:41;6.97;;;5.90;;
17763;SDS011;22245;52.832;13.816;2023-07-20T04:51:03;5.65;;;5.05;;
17763;SDS011;22245;52.832;13.816;2023-07-20T04:54:26;5.15;;;4.38;;
17763;SDS011;22245;52.832;13.816;2023-07-20T04:57:48;5.72;;;5.13;;
17763;SDS011;22245;52.832;13.816;2023-07-20T05:01:09;7.25;;;5.00;;
17763;SDS011;22245;52.832;13.816;2023-07-20T05:04:32;7.40;;;4.40;;
17763;SDS011;22245;52.832;13.816;2023-07-20T05:07:59;6.63;;;5.20;;
17763;SDS011;22245;52.832;13.816;2023-07-20T05:26:43;5.43;;;4.15;;
17763;SDS011;22245;52.832;13.816;2023-07-20T05:30:06;5.28;;;4.70;;
17763;SDS011;22245;52.832;13.816;2023-07-20T05:33:29;6.88;;;4.60;;
17763;SDS011;22245;52.832;13.816;2023-07-20T05:36:50;5.05;;;4.15;;
17763;SDS011;22245;52.832;13.816;2023-07-20T05:40:14;6.40;;;4.80;;
17763;SDS011;22245;52.832;13.816;2023-07-20T05:43:39;6.30;;;5.03;;
17763;SDS011;22245;52.832;13.816;2023-07-20T05:47:02;7.03;;;5.18;;
17763;SDS011;22245;52.832;13.816;2023-07-20T05:50:24;6.57;;;4.90;;
17763;SDS011;22245;52.832;13.816;2023-07-20T05:53:45;6.57;;;5.28;;
17763;SDS011;22245;52.832;13.816;2023-07-20T05:57:08;6.32;;;5.28;;
17763;SDS011;22245;52.832;13.816;2023-07-20T06:00:30;7.03;;;5.38;;
17763;SDS011;22245;52.832;13.816;2023-07-20T06:03:52;5.93;;;5.30;;
17763;SDS011;22245;52.832;13.816;2023-07-20T06:07:14;8.18;;;6.57;;
17763;SDS011;22245;52.832;13.816;2023-07-20T06:10:36;10.07;;;6.65;;
17763;SDS011;22245;52.832;13.816;2023-07-20T06:13:59;9.73;;;6.70;;
17763;SDS011;22245;52.832;13.816;2023-07-20T06:17:21;8.30;;;5.68;;
17763;SDS011;22245;52.832;13.816;2023-07-20T06:20:48;8.77;;;6.20;;
17763;SDS011;22245;52.832;13.816;2023-07-20T06:24:09;8.52;;;6.05;;
17763;SDS011;22245;52.832;13.816;2023-07-20T06:27:31;8.15;;;6.20;;
17763;SDS011;22245;52.832;13.816;2023-07-20T06:30:59;9.80;;;6.32;;
17763;SDS011;22245;52.832;13.816;2023-07-20T06:34:21;9.65;;;6.20;;
17763;SDS011;22245;52.832;13.816;2023-07-20T06:37:43;8.20;;;5.90;;
17763;SDS011;22245;52.832;13.816;2023-07-20T06:41:05;6.00;;;4.90;;
17763;SDS011;22245;52.832;13.816;2023-07-20T06:44:30;8.40;;;5.13;;
17763;SDS011;22245;52.832;13.816;2023-07-20T06:47:53;8.98;;;4.93;;
17763;SDS011;22245;52.832;13.816;2023-07-20T06:51:15;6.50;;;4.75;;
17763;SDS011;22245;52.832;13.816;2023-07-20T06:54:38;7.43;;;4.50;;
17763;SDS011;22245;52.832;13.816;2023-07-20T06:58:04;6.40;;;4.43;;
17763;SDS011;22245;52.832;13.816;2023-07-20T07:01:26;7.30;;;4.53;;
17763;SDS011;22245;52.832;13.816;2023-07-20T07:04:49;6.05;;;4.03;;
17763;SDS011;22245;52.832;13.816;2023-07-20T07:08:19;3.83;;;2.67;;
17763;SDS011;22245;52.832;13.816;2023-07-20T07:11:41;3.95;;;2.47;;
17763;SDS011;22245;52.832;13.816;2023-07-20T07:15:04;1.88;;;1.67;;
17763;SDS011;22245;52.832;13.816;2023-07-20T07:18:26;4.88;;;3.08;;
17763;SDS011;22245;52.832;13.816;2023-07-20T07:21:50;6.18;;;2.08;;
17763;SDS011;22245;52.832;13.816;2023-07-20T07:25:12;2.90;;;1.83;;
17763;SDS011;22245;52.832;13.816;2023-07-20T07:28:37;3.60;;;2.58;;
17763;SDS011;22245;52.832;13.816;2023-07-20T07:31:59;4.00;;;2.53;;
17763;SDS011;22245;52.832;13.816;2023-07-20T07:35:23;2.63;;;2.03;;
17763;SDS011;22245;52.832;13.816;2023-07-20T07:38:47;3.40;;;2.53;;
17763;SDS011;22245;52.832;13.816;2023-07-20T07:42:28;3.35;;;2.22;;
17763;SDS011;22245;52.832;13.816;2023-07-20T07:45:53;3.45;;;1.90;;
17763;SDS011;22245;52.832;13.816;2023-07-20T07:49:15;2.78;;;2.10;;
17763;SDS011;22245;52.832;13.816;2023-07-20T07:52:37;5.80;;;2.20;;
17763;SDS011;22245;52.832;13.816;2023-07-20T07:55:59;1.95;;;1.73;;
17763;SDS011;22245;52.832;13.816;2023-07-20T07:59:23;2.40;;;1.90;;
17763;SDS011;22245;52.832;13.816;2023-07-20T08:02:45;2.83;;;2.00;;
17763;SDS011;22245;52.832;13.816;2023-07-20T08:06:08;5.25;;;2.20;;
17763;SDS011;22245;52.832;13.816;2023-07-20T08:09:32;3.13;;;2.20;;
17763;SDS011;22245;52.832;13.816;2023-07-20T08:12:55;3.35;;;2.10;;
17763;SDS011;22245;52.832;13.816;2023-07-20T08:16:17;2.00;;;1.80;;
17763;SDS011;22245;52.832;13.816;2023-07-20T08:19:39;2.20;;;1.88;;
17763;SDS011;22245;52.832;13.816;2023-07-20T08:23:02;3.38;;;1.40;;
17763;SDS011;22245;52.832;13.816;2023-07-20T08:26:24;1.85;;;1.27;;
17763;SDS011;22245;52.832;13.816;2023-07-20T08:29:47;1.55;;;1.27;;
17763;SDS011;22245;52.832;13.816;2023-07-20T08:33:09;1.90;;;1.60;;
17763;SDS011;22245;52.832;13.816;2023-07-20T08:36:32;1.65;;;1.40;;
17763;SDS011;22245;52.832;13.816;2023-07-20T08:39:54;1.58;;;1.25;;
17763;SDS011;22245;52.832;13.816;2023-07-20T08:43:16;1.70;;;0.90;;
17763;SDS011;22245;52.832;13.816;2023-07-20T08:46:40;1.67;;;1.00;;
17763;SDS011;22245;52.832;13.816;2023-07-20T08:50:04;2.45;;;0.90;;
17763;SDS011;22245;52.832;13.816;2023-07-20T08:53:29;1.75;;;0.70;;
17763;SDS011;22245;52.832;13.816;2023-07-20T08:56:53;2.45;;;1.05;;
17763;SDS011;22245;52.832;13.816;2023-07-20T09:00:16;0.98;;;0.90;;
17763;SDS011;22245;52.832;13.816;2023-07-20T09:03:41;1.85;;;0.90;;
17763;SDS011;22245;52.832;13.816;2023-07-20T09:07:06;2.50;;;1.00;;
17763;SDS011;22245;52.832;13.816;2023-07-20T09:10:28;1.02;;;0.80;;
17763;SDS011;22245;52.832;13.816;2023-07-20T09:14:01;1.50;;;0.80;;
17763;SDS011;22245;52.832;13.816;2023-07-20T09:17:25;2.25;;;1.10;;
17763;SDS011;22245;52.832;13.816;2023-07-20T09:20:51;1.25;;;0.80;;
17763;SDS011;22245;52.832;13.816;2023-07-20T09:24:13;2.85;;;1.20;;
17763;SDS011;22245;52.832;13.816;2023-07-20T09:27:38;2.20;;;1.08;;
17763;SDS011;22245;52.832;13.816;2023-07-20T09:31:04;0.80;;;0.80;;
17763;SDS011;22245;52.832;13.816;2023-07-20T09:34:37;2.10;;;0.90;;
17763;SDS011;22245;52.832;13.816;2023-07-20T09:38:01;1.40;;;0.82;;
17763;SDS011;22245;52.832;13.816;2023-07-20T09:41:26;2.92;;;0.90;;
17763;SDS011;22245;52.832;13.816;2023-07-20T09:44:50;0.80;;;0.70;;
17763;SDS011;22245;52.832;13.816;2023-07-20T09:48:12;1.20;;;0.80;;
17763;SDS011;22245;52.832;13.816;2023-07-20T09:51:37;1.15;;;0.93;;
17763;SDS011;22245;52.832;13.816;2023-07-20T09:55:01;1.45;;;0.77;;
17763;SDS011;22245;52.832;13.816;2023-07-20T09:58:23;1.08;;;0.85;;
17763;SDS011;22245;52.832;13.816;2023-07-20T10:01:47;2.15;;;1.30;;
17763;SDS011;22245;52.832;13.816;2023-07-20T10:05:14;2.00;;;0.93;;
17763;SDS011;22245;52.832;13.816;2023-07-20T10:08:38;1.70;;;1.00;;
17763;SDS011;22245;52.832;13.816;2023-07-20T10:12:06;1.05;;;0.95;;
17763;SDS011;22245;52.832;13.816;2023-07-20T10:15:36;2.20;;;1.05;;
17763;SDS011;22245;52.832;13.816;2023-07-20T10:19:03;1.42;;;1.25;;
17763;SDS011;22245;52.832;13.816;2023-07-20T10:22:37;1.50;;;1.20;;
17763;SDS011;22245;52.832;13.816;2023-07-20T10:26:02;1.30;;;1.13;;
17763;SDS011;22245;52.832;13.816;2023-07-20T10:29:26;2.25;;;1.38;;
17763;SDS011;22245;52.832;13.816;2023-07-20T10:32:49;1.25;;;1.15;;
17763;SDS011;22245;52.832;13.816;2023-07-20T10:36:13;2.78;;;1.67;;
17763;SDS011;22245;52.832;13.816;2023-07-20T10:39:34;2.50;;;1.40;;
17763;SDS011;22245;52.832;13.816;2023-07-20T10:43:00;3.47;;;1.60;;
17763;SDS011;22245;52.832;13.816;2023-07-20T10:46:44;2.53;;;1.50;;
17763;SDS011;22245;52.832;13.816;2023-07-20T10:50:06;1.60;;;1.50;;
17763;SDS011;22245;52.832;13.816;2023-07-20T10:53:29;2.15;;;1.48;;
17763;SDS011;22245;52.832;13.816;2023-07-20T10:56:51;2.95;;;1.60;;
17763;SDS011;22245;52.832;13.816;2023-07-20T11:00:13;1.60;;;1.50;;
17763;SDS011;22245;52.832;13.816;2023-07-20T11:03:37;1.83;;;1.45;;
17763;SDS011;22245;52.832;13.816;2023-07-20T11:06:59;2.00;;;1.80;;
17763;SDS011;22245;52.832;13.816;2023-07-20T11:10:22;2.50;;;1.50;;
17763;SDS011;22245;52.832;13.816;2023-07-20T11:13:53;1.70;;;1.60;;
17763;SDS011;22245;52.832;13.816;2023-07-20T11:17:16;2.08;;;1.67;;
17763;SDS011;22245;52.832;13.816;2023-07-20T11:20:43;1.70;;;1.60;;
17763;SDS011;22245;52.832;13.816;2023-07-20T11:24:06;1.60;;;1.40;;
17763;SDS011;22245;52.832;13.816;2023-07-20T11:27:29;1.63;;;1.52;;
17763;SDS011;22245;52.832;13.816;2023-07-20T11:30:52;1.50;;;1.40;;
17763;SDS011;22245;52.832;13.816;2023-07-20T11:34:15;3.58;;;1.80;;
17763;SDS011;22245;52.832;13.816;2023-07-20T11:37:39;2.33;;;1.90;;
17763;SDS011;22245;52.832;13.816;2023-07-20T11:41:02;2.92;;;1.70;;
17763;SDS011;22245;52.832;13.816;2023-07-20T11:44:25;2.60;;;1.70;;
17763;SDS011;22245;52.832;13.816;2023-07-20T11:47:49;2.80;;;1.67;;
17763;SDS011;22245;52.832;13.816;2023-07-20T11:51:13;3.05;;;1.75;;
17763;SDS011;22245;52.832;13.816;2023-07-20T11:54:37;2.25;;;1.75;;
17763;SDS011;22245;52.832;13.816;2023-07-20T11:58:03;1.60;;;1.50;;
17763;SDS011;22245;52.832;13.816;2023-07-20T12:01:25;3.83;;;1.60;;
17763;SDS011;22245;52.832;13.816;2023-07-20T12:04:49;1.48;;;1.20;;
17763;SDS011;22245;52.832;13.816;2023-07-20T12:08:12;1.63;;;1.00;;
17763;SDS011;22245;52.832;13.816;2023-07-20T12:11:36;1.30;;;1.20;;
17763;SDS011;22245;52.832;13.816;2023-07-20T12:15:12;1.17;;;1.08;;
17763;SDS011;22245;52.832;13.816;2023-07-20T12:18:35;1.23;;;1.00;;
17763;SDS011;22245;52.832;13.816;2023-07-20T12:21:57;0.90;;;0.80;;
17763;SDS011;22245;52.832;13.816;2023-07-20T12:25:19;0.80;;;0.80;;
17763;SDS011;22245;52.832;13.816;2023-07-20T12:28:43;2.72;;;1.10;;
17763;SDS011;22245;52.832;13.816;2023-07-20T12:32:05;2.13;;;1.00;;
17763;SDS011;22245;52.832;13.816;2023-07-20T12:35:27;1.65;;;1.00;;
17763;SDS011;22245;52.832;13.816;2023-07-20T12:38:48;1.48;;;0.88;;
17763;SDS011;22245;52.832;13.816;2023-07-20T12:42:10;0.75;;;0.75;;
17763;SDS011;22245;52.832;13.816;2023-07-20T12:45:35;1.70;;;0.70;;
17763;SDS011;22245;52.832;13.816;2023-07-20T12:48:57;0.80;;;0.60;;
17763;SDS011;22245;52.832;13.816;2023-07-20T12:52:18;0.75;;;0.75;;
17763;SDS011;22245;52.832;13.816;2023-07-20T12:55:40;0.98;;;0.63;;
17763;SDS011;22245;52.832;13.816;2023-07-20T12:59:02;1.10;;;0.65;;
17763;SDS011;22245;52.832;13.816;2023-07-20T13:02:27;2.78;;;0.90;;
17763;SDS011;22245;52.832;13.816;2023-07-20T13:05:49;0.80;;;0.77;;
17763;SDS011;22245;52.832;13.816;2023-07-20T13:09:14;0.82;;;0.73;;
17763;SDS011;22245;52.832;13.816;2023-07-20T13:12:36;0.70;;;0.70;;
17763;SDS011;22245;52.832;13.816;2023-07-20T13:15:59;1.50;;;0.82;;
17763;SDS011;22245;52.832;13.816;2023-07-20T13:19:22;0.68;;;0.60;;
17763;SDS011;22245;52.832;13.816;2023-07-20T13:22:44;0.88;;;0.73;;
17763;SDS011;22245;52.832;13.816;2023-07-20T13:26:06;4.40;;;1.48;;
17763;SDS011;22245;52.832;13.816;2023-07-20T13:29:28;0.80;;;0.70;;
17763;SDS011;22245;52.832;13.816;2023-07-20T13:32:50;1.20;;;0.90;;
17763;SDS011;22245;52.832;13.816;2023-07-20T13:36:15;1.60;;;0.90;;
17763;SDS011;22245;52.832;13.816;2023-07-20T13:39:37;5.35;;;1.00;;
17763;SDS011;22245;52.832;13.816;2023-07-20T13:42:58;1.20;;;0.80;;
17763;SDS011;22245;52.832;13.816;2023-07-20T13:46:20;0.73;;;0.73;;
17763;SDS011;22245;52.832;13.816;2023-07-20T13:50:01;2.15;;;1.00;;
17763;SDS011;22245;52.832;13.816;2023-07-20T13:53:25;7.13;;;1.00;;
17763;SDS011;22245;52.832;13.816;2023-07-20T13:56:51;2.67;;;1.13;;
17763;SDS011;22245;52.832;13.816;2023-07-20T14:00:12;2.58;;;1.17;;
17763;SDS011;22245;52.832;13.816;2023-07-20T14:03:36;2.75;;;0.90;;
17763;SDS011;22245;52.832;13.816;2023-07-20T14:06:58;1.52;;;0.80;;
17763;SDS011;22245;52.832;13.816;2023-07-20T14:10:21;1.67;;;1.00;;
17763;SDS011;22245;52.832;13.816;2023-07-20T14:13:43;1.40;;;1.00;;
17763;SDS011;22245;52.832;13.816;2023-07-20T14:17:08;1.67;;;1.00;;
17763;SDS011;22245;52.832;13.816;2023-07-20T14:20:29;1.63;;;1.00;;
17763;SDS011;22245;52.832;13.816;2023-07-20T14:23:51;1.25;;;0.90;;
17763;SDS011;22245;52.832;13.816;2023-07-20T14:27:14;3.25;;;1.05;;
17763;SDS011;22245;52.832;13.816;2023-07-20T14:30:36;1.88;;;1.05;;
17763;SDS011;22245;52.832;13.816;2023-07-20T14:33:58;1.83;;;1.25;;
17763;SDS011;22245;52.832;13.816;2023-07-20T14:37:19;1.52;;;1.05;;
17763;SDS011;22245;52.832;13.816;2023-07-20T14:40:41;3.42;;;1.25;;
17763;SDS011;22245;52.832;13.816;2023-07-20T14:44:04;2.42;;;1.00;;
17763;SDS011;22245;52.832;13.816;2023-07-20T14:47:27;1.33;;;1.23;;
17763;SDS011;22245;52.832;13.816;2023-07-20T14:50:52;1.35;;;1.20;;
17763;SDS011;22245;52.832;13.816;2023-07-20T14:54:24;2.55;;;1.20;;
17763;SDS011;22245;52.832;13.816;2023-07-20T14:57:46;3.10;;;1.40;;
17763;SDS011;22245;52.832;13.816;2023-07-20T15:01:10;1.73;;;1.40;;
17763;SDS011;22245;52.832;13.816;2023-07-20T15:04:32;1.73;;;1.27;;
17763;SDS011;22245;52.832;13.816;2023-07-20T15:07:54;1.48;;;1.20;;
17763;SDS011;22245;52.832;13.816;2023-07-20T15:11:15;1.83;;;1.30;;
17763;SDS011;22245;52.832;13.816;2023-07-20T15:14:39;2.22;;;1.27;;
17763;SDS011;22245;52.832;13.816;2023-07-20T15:18:03;4.78;;;1.25;;
17763;SDS011;22245;52.832;13.816;2023-07-20T15:21:25;2.60;;;1.40;;
17763;SDS011;22245;52.832;13.816;2023-07-20T15:24:50;2.70;;;1.40;;
17763;SDS011;22245;52.832;13.816;2023-07-20T15:28:12;2.47;;;1.30;;
17763;SDS011;22245;52.832;13.816;2023-07-20T15:31:35;1.42;;;1.10;;
17763;SDS011;22245;52.832;13.816;2023-07-20T15:35:01;2.42;;;1.10;;
17763;SDS011;22245;52.832;13.816;2023-07-20T15:38:23;1.55;;;1.38;;
17763;SDS011;22245;52.832;13.816;2023-07-20T15:41:47;1.73;;;1.38;;
17763;SDS011;22245;52.832;13.816;2023-07-20T15:48:55;3.85;;;1.70;;
17763;SDS011;22245;52.832;13.816;2023-07-20T15:52:18;3.13;;;1.50;;
17763;SDS011;22245;52.832;13.816;2023-07-20T15:55:40;2.17;;;1.45;;
17763;SDS011;22245;52.832;13.816;2023-07-20T15:59:02;2.10;;;1.35;;
17763;SDS011;22245;52.832;13.816;2023-07-20T16:02:23;2.83;;;1.55;;
17763;SDS011;22245;52.832;13.816;2023-07-20T16:05:44;3.58;;;1.40;;
17763;SDS011;22245;52.832;13.816;2023-07-20T16:09:08;1.73;;;1.20;;
17763;SDS011;22245;52.832;13.816;2023-07-20T16:12:31;5.55;;;1.42;;
17763;SDS011;22245;52.832;13.816;2023-07-20T16:15:53;1.85;;;1.40;;
17763;SDS011;22245;52.832;13.816;2023-07-20T16:19:14;1.67;;;1.25;;
17763;SDS011;22245;52.832;13.816;2023-07-20T16:22:36;2.78;;;0.90;;
17763;SDS011;22245;52.832;13.816;2023-07-20T16:25:59;2.25;;;1.10;;
17763;SDS011;22245;52.832;13.816;2023-07-20T16:29:20;2.15;;;1.17;;
17763;SDS011;22245;52.832;13.816;2023-07-20T16:32:44;2.58;;;1.30;;
17763;SDS011;22245;52.832;13.816;2023-07-20T16:36:10;1.15;;;0.90;;
17763;SDS011;22245;52.832;13.816;2023-07-20T16:39:33;1.55;;;1.00;;
17763;SDS011;22245;52.832;13.816;2023-07-20T16:43:08;1.67;;;1.10;;
17763;SDS011;22245;52.832;13.816;2023-07-20T16:46:30;1.77;;;1.20;;
17763;SDS011;22245;52.832;13.816;2023-07-20T16:49:56;1.52;;;1.10;;
17763;SDS011;22245;52.832;13.816;2023-07-20T16:57:54;1.45;;;1.00;;
17763;SDS011;22245;52.832;13.816;2023-07-20T17:01:17;2.15;;;1.35;;
17763;SDS011;22245;52.832;13.816;2023-07-20T17:04:38;2.03;;;1.10;;
17763;SDS011;22245;52.832;13.816;2023-07-20T17:08:00;4.20;;;1.38;;
17763;SDS011;22245;52.832;13.816;2023-07-20T17:11:22;3.05;;;1.48;;
17763;SDS011;22245;52.832;13.816;2023-07-20T17:14:44;2.28;;;1.02;;
17763;SDS011;22245;52.832;13.816;2023-07-20T17:18:08;2.22;;;1.10;;
17763;SDS011;22245;52.832;13.816;2023-07-20T17:21:30;3.42;;;1.10;;
17763;SDS011;22245;52.832;13.816;2023-07-20T17:24:53;2.25;;;0.98;;
17763;SDS011;22245;52.832;13.816;2023-07-20T17:28:17;1.10;;;0.80;;
17763;SDS011;22245;52.832;13.816;2023-07-20T17:31:42;1.90;;;0.60;;
17763;SDS011;22245;52.832;13.816;2023-07-20T17:35:06;1.33;;;0.77;;
17763;SDS011;22245;52.832;13.816;2023-07-20T17:38:30;2.50;;;0.63;;
17763;SDS011;22245;52.832;13.816;2023-07-20T17:41:54;2.13;;;0.82;;
17763;SDS011;22245;52.832;13.816;2023-07-20T17:45:16;1.25;;;0.70;;
17763;SDS011;22245;52.832;13.816;2023-07-20T17:48:37;2.25;;;0.70;;
17763;SDS011;22245;52.832;13.816;2023-07-20T17:52:01;0.95;;;0.60;;
17763;SDS011;22245;52.832;13.816;2023-07-20T17:55:22;2.03;;;0.90;;
17763;SDS011;22245;52.832;13.816;2023-07-20T17:58:44;1.50;;;0.70;;
17763;SDS011;22245;52.832;13.816;2023-07-20T18:02:05;3.03;;;0.82;;
17763;SDS011;22245;52.832;13.816;2023-07-20T18:05:27;1.75;;;0.80;;
17763;SDS011;22245;52.832;13.816;2023-07-20T18:08:51;1.70;;;0.57;;
17763;SDS011;22245;52.832;13.816;2023-07-20T18:12:12;2.88;;;0.80;;
17763;SDS011;22245;52.832;13.816;2023-07-20T18:15:33;2.40;;;0.70;;
17763;SDS011;22245;52.832;13.816;2023-07-20T18:18:55;1.70;;;0.50;;
17763;SDS011;22245;52.832;13.816;2023-07-20T18:22:17;2.95;;;0.68;;
17763;SDS011;22245;52.832;13.816;2023-07-20T18:25:40;1.45;;;0.70;;
17763;SDS011;22245;52.832;13.816;2023-07-20T18:29:02;1.13;;;0.70;;
17763;SDS011;22245;52.832;13.816;2023-07-20T18:32:24;2.63;;;0.60;;
17763;SDS011;22245;52.832;13.816;2023-07-20T18:35:46;2.30;;;0.68;;
17763;SDS011;22245;52.832;13.816;2023-07-20T18:39:07;1.95;;;0.60;;
17763;SDS011;22245;52.832;13.816;2023-07-20T18:42:31;0.65;;;0.50;;
17763;SDS011;22245;52.832;13.816;2023-07-20T18:45:54;0.77;;;0.50;;
17763;SDS011;22245;52.832;13.816;2023-07-20T18:49:16;1.58;;;0.77;;
17763;SDS011;22245;52.832;13.816;2023-07-20T18:52:38;1.67;;;0.60;;
17763;SDS011;22245;52.832;13.816;2023-07-20T18:55:59;1.23;;;0.70;;
17763;SDS011;22245;52.832;13.816;2023-07-20T18:59:22;1.80;;;0.60;;
17763;SDS011;22245;52.832;13.816;2023-07-20T19:02:44;2.35;;;0.75;;
17763;SDS011;22245;52.832;13.816;2023-07-20T19:06:06;1.27;;;0.77;;
17763;SDS011;22245;52.832;13.816;2023-07-20T19:09:28;1.08;;;0.75;;
17763;SDS011;22245;52.832;13.816;2023-07-20T19:12:50;0.73;;;0.60;;
17763;SDS011;22245;52.832;13.816;2023-07-20T19:16:14;1.75;;;0.70;;
17763;SDS011;22245;52.832;13.816;2023-07-20T19:19:36;1.42;;;0.70;;
17763;SDS011;22245;52.832;13.816;2023-07-20T19:22:58;2.20;;;0.70;;
17763;SDS011;22245;52.832;13.816;2023-07-20T19:26:19;1.60;;;0.60;;
17763;SDS011;22245;52.832;13.816;2023-07-20T19:29:41;2.35;;;0.70;;
17763;SDS011;22245;52.832;13.816;2023-07-20T19:33:04;4.88;;;0.70;;
17763;SDS011;22245;52.832;13.816;2023-07-20T19:36:26;2.50;;;0.70;;
17763;SDS011;22245;52.832;13.816;2023-07-20T19:39:48;1.10;;;0.65;;
17763;SDS011;22245;52.832;13.816;2023-07-20T19:43:10;1.35;;;0.90;;
17763;SDS011;22245;52.832;13.816;2023-07-20T19:46:35;1.63;;;0.60;;
17763;SDS011;22245;52.832;13.816;2023-07-20T19:49:59;1.77;;;0.70;;
17763;SDS011;22245;52.832;13.816;2023-07-20T19:53:21;1.33;;;0.60;;
17763;SDS011;22245;52.832;13.816;2023-07-20T19:56:45;0.82;;;0.65;;
17763;SDS011;22245;52.832;13.816;2023-07-20T20:03:59;2.40;;;0.80;;
17763;SDS011;22245;52.832;13.816;2023-07-20T20:07:25;1.27;;;0.80;;
17763;SDS011;22245;52.832;13.816;2023-07-20T20:10:46;3.45;;;0.90;;
17763;SDS011;22245;52.832;13.816;2023-07-20T20:14:12;1.00;;;0.80;;
17763;SDS011;22245;52.832;13.816;2023-07-20T20:17:33;1.15;;;0.60;;
17763;SDS011;22245;52.832;13.816;2023-07-20T20:20:56;2.35;;;0.65;;
17763;SDS011;22245;52.832;13.816;2023-07-20T20:24:20;1.83;;;1.00;;
17763;SDS011;22245;52.832;13.816;2023-07-20T20:27:42;1.45;;;0.80;;
17763;SDS011;22245;52.832;13.816;2023-07-20T20:31:03;2.25;;;1.00;;